Time;durP1;ratioP1;P1;durP2;ratioP2;P2;SDS_P1;SDS_P2;PMS_P1;PMS_P2;Temp;Humidity;BMP_temperature;BMP_pressure;BME280_temperature;BME280_humidity;BME280_pressure;Samples;Min_cycle;Max_cycle;Signal;HPM_P1;HPM_P2
2022/11/29 00:00:03;;;;;;;;;55.50;44.00;;;;;;;;4931471;29;11641;-80
2022/11/29 00:02:32;;;;;;;;;50.00;40.25;;;;;;;;4931008;29;11695;-81
2022/11/29 00:04:59;;;;;;;;;27.00;22.00;;;;;;;;4927021;29;11767;-80
2022/11/29 00:07:27;;;;;;;;;31.75;30.50;;;;;;;;4926273;29;11650;-81
2022/11/29 00:09:54;;;;;;;;;30.50;29.25;;;;;;;;4928914;29;11679;-80
2022/11/29 00:12:22;;;;;;;;;43.25;34.50;;;;;;;;4928130;28;11776;-80
2022/11/29 00:14:50;;;;;;;;;33.50;33.50;;;;;;;;4931345;29;12416;-80
2022/11/29 00:17:18;;;;;;;;;38.75;32.50;;;;;;;;4928106;29;11649;-80
2022/11/29 00:19:47;;;;;;;;;33.50;30.75;;;;;;;;4928592;29;11781;-81
2022/11/29 00:22:14;;;;;;;;;31.50;29.75;;;;;;;;4930915;29;11690;-82
2022/11/29 00:24:42;;;;;;;;;39.75;34.00;;;;;;;;4929414;29;11660;-80
2022/11/29 00:27:09;;;;;;;;;44.25;38.50;;;;;;;;4927992;29;11635;-80
2022/11/29 00:29:38;;;;;;;;;39.25;32.50;;;;;;;;4928768;29;11641;-80
2022/11/29 00:32:05;;;;;;;;;40.50;35.00;;;;;;;;4929540;29;11775;-80
2022/11/29 00:34:33;;;;;;;;;44.25;39.50;;;;;;;;4926641;29;11644;-80
2022/11/29 00:37:02;;;;;;;;;34.25;30.25;;;;;;;;4927613;29;11688;-79
2022/11/29 00:39:30;;;;;;;;;34.00;33.75;;;;;;;;4924951;29;11675;-80
2022/11/29 00:41:57;;;;;;;;;39.25;33.25;;;;;;;;4927028;29;11644;-80
2022/11/29 00:44:25;;;;;;;;;38.75;36.00;;;;;;;;4929070;29;11665;-80
2022/11/29 00:46:52;;;;;;;;;22.50;19.00;;;;;;;;4928856;29;11664;-80
2022/11/29 00:49:20;;;;;;;;;33.25;31.50;;;;;;;;4925800;29;11660;-79
2022/11/29 00:51:48;;;;;;;;;28.00;25.75;;;;;;;;4924468;29;12521;-79
2022/11/29 00:54:17;;;;;;;;;32.00;29.50;;;;;;;;4924699;29;11780;-80
2022/11/29 00:56:45;;;;;;;;;43.00;34.75;;;;;;;;4928107;29;11666;-80
2022/11/29 00:59:13;;;;;;;;;27.25;23.50;;;;;;;;4928716;29;11665;-80
2022/11/29 01:01:40;;;;;;;;;37.75;33.75;;;;;;;;4928225;29;11689;-80
2022/11/29 01:04:08;;;;;;;;;39.75;36.00;;;;;;;;4927707;29;11726;-80
2022/11/29 01:06:35;;;;;;;;;26.25;26.25;;;;;;;;4928461;29;11677;-80
2022/11/29 01:09:03;;;;;;;;;35.50;34.75;;;;;;;;4926487;29;11793;-80
2022/11/29 01:11:33;;;;;;;;;39.75;35.75;;;;;;;;4927593;29;12491;-80
2022/11/29 01:14:02;;;;;;;;;36.50;33.50;;;;;;;;4928745;28;11664;-79
2022/11/29 01:16:30;;;;;;;;;29.75;28.50;;;;;;;;4928648;28;11713;-80
2022/11/29 01:18:58;;;;;;;;;31.50;28.00;;;;;;;;4927576;29;11661;-80
2022/11/29 01:21:25;;;;;;;;;29.00;27.75;;;;;;;;4927809;29;11652;-80
2022/11/29 01:23:54;;;;;;;;;27.50;27.50;;;;;;;;4929012;29;11625;-80
2022/11/29 01:26:23;;;;;;;;;39.75;34.50;;;;;;;;4928252;29;12404;-80
2022/11/29 01:28:54;;;;;;;;;39.50;36.50;;;;;;;;4924582;29;11650;-81
2022/11/29 01:31:24;;;;;;;;;45.75;39.50;;;;;;;;4928108;29;11690;-80
2022/11/29 01:33:54;;;;;;;;;33.75;30.50;;;;;;;;4927807;29;11750;-81
2022/11/29 01:36:23;;;;;;;;;28.25;28.00;;;;;;;;4924688;29;11714;-81
2022/11/29 01:38:51;;;;;;;;;31.25;28.25;;;;;;;;4926906;29;11624;-81
2022/11/29 01:41:21;;;;;;;;;30.75;28.25;;;;;;;;4927045;29;11793;-81
2022/11/29 01:44:00;;;;;;;;;29.00;27.25;;;;;;;;4927638;29;11653;-81
2022/11/29 01:46:28;;;;;;;;;38.75;31.75;;;;;;;;4924941;29;11733;-80
2022/11/29 01:48:59;;;;;;;;;31.00;26.50;;;;;;;;4926361;29;11617;-80
2022/11/29 01:51:27;;;;;;;;;45.25;35.25;;;;;;;;4924850;29;11754;-81
2022/11/29 01:53:55;;;;;;;;;25.50;25.50;;;;;;;;4927613;29;11751;-81
2022/11/29 01:56:24;;;;;;;;;30.50;25.25;;;;;;;;4929069;29;11621;-82
2022/11/29 01:58:52;;;;;;;;;26.00;26.00;;;;;;;;4924758;29;11660;-82
2022/11/29 02:01:21;;;;;;;;;27.50;24.00;;;;;;;;4927583;29;11627;-81
2022/11/29 02:03:49;;;;;;;;;26.75;26.75;;;;;;;;4926739;29;11646;-81
2022/11/29 02:06:17;;;;;;;;;30.25;26.75;;;;;;;;4924534;29;11661;-81
2022/11/29 02:08:45;;;;;;;;;20.25;20.25;;;;;;;;4925833;29;11672;-82
2022/11/29 02:11:35;;;;;;;;;24.50;22.50;;;;;;;;4925586;29;11599;-81
2022/11/29 02:14:15;;;;;;;;;18.75;18.25;;;;;;;;4926861;29;11753;-81
2022/11/29 02:16:52;;;;;;;;;19.75;18.50;;;;;;;;4925934;29;11636;-80
2022/11/29 02:19:34;;;;;;;;;19.00;19.00;;;;;;;;4927265;29;11614;-80
2022/11/29 02:22:06;;;;;;;;;20.75;20.75;;;;;;;;4925395;29;11702;-80
2022/11/29 02:25:03;;;;;;;;;19.50;16.00;;;;;;;;4925607;29;11749;-80
2022/11/29 02:28:07;;;;;;;;;21.50;19.25;;;;;;;;4927014;29;11644;-80
2022/11/29 02:30:56;;;;;;;;;11.75;11.75;;;;;;;;4894907;29;11751;-80
2022/11/29 02:33:47;;;;;;;;;14.00;14.00;;;;;;;;4927030;29;11702;-81
2022/11/29 02:36:36;;;;;;;;;24.25;24.25;;;;;;;;4925675;29;11703;-81
2022/11/29 02:39:22;;;;;;;;;24.50;20.50;;;;;;;;4926828;29;11674;-81
2022/11/29 02:42:05;;;;;;;;;29.00;23.50;;;;;;;;4910454;29;11728;-81
2022/11/29 02:44:53;;;;;;;;;23.00;20.25;;;;;;;;4922928;29;11779;-81
2022/11/29 02:47:28;;;;;;;;;22.25;19.75;;;;;;;;4925960;29;11623;-81
2022/11/29 02:50:14;;;;;;;;;30.25;29.25;;;;;;;;4922864;29;11620;-82
2022/11/29 02:52:48;;;;;;;;;24.50;24.50;;;;;;;;4922866;29;11105;-81
2022/11/29 02:55:21;;;;;;;;;26.75;24.00;;;;;;;;4928009;29;11666;-81
2022/11/29 02:57:55;;;;;;;;;22.50;22.50;;;;;;;;4926259;29;11631;-81
2022/11/29 03:00:24;;;;;;;;;20.75;20.75;;;;;;;;4926531;29;11589;-81
2022/11/29 03:02:58;;;;;;;;;19.75;19.75;;;;;;;;4927066;29;11611;-81
2022/11/29 03:05:34;;;;;;;;;16.25;16.25;;;;;;;;4924142;29;11645;-81
2022/11/29 03:08:10;;;;;;;;;22.00;20.75;;;;;;;;4923729;29;11712;-81
2022/11/29 03:10:47;;;;;;;;;16.50;12.25;;;;;;;;4923492;29;11669;-81
2022/11/29 03:13:20;;;;;;;;;25.25;22.25;;;;;;;;4924848;29;11726;-80
2022/11/29 03:15:53;;;;;;;;;18.25;18.25;;;;;;;;4924747;28;11671;-80
2022/11/29 03:18:33;;;;;;;;;18.00;16.00;;;;;;;;4927652;29;11676;-81
2022/11/29 03:21:10;;;;;;;;;12.25;12.25;;;;;;;;4925782;29;11728;-80
2022/11/29 03:23:41;;;;;;;;;18.50;15.25;;;;;;;;4924656;29;11627;-81
2022/11/29 03:26:12;;;;;;;;;15.75;15.75;;;;;;;;4925484;29;11651;-81
2022/11/29 03:28:43;;;;;;;;;17.25;13.75;;;;;;;;4922615;29;11626;-81
2022/11/29 03:31:14;;;;;;;;;23.75;19.25;;;;;;;;4926555;29;11632;-81
2022/11/29 03:33:49;;;;;;;;;19.75;16.00;;;;;;;;4924805;29;11695;-81
2022/11/29 03:36:26;;;;;;;;;17.50;17.50;;;;;;;;4923258;29;11612;-81
2022/11/29 03:38:57;;;;;;;;;21.00;16.50;;;;;;;;4928494;29;11627;-82
2022/11/29 03:41:28;;;;;;;;;20.00;20.00;;;;;;;;4930181;29;11629;-81
2022/11/29 03:44:00;;;;;;;;;20.75;20.50;;;;;;;;4926084;29;11654;-81
2022/11/29 03:46:35;;;;;;;;;28.00;25.75;;;;;;;;4930301;29;11638;-81
2022/11/29 03:49:07;;;;;;;;;20.75;20.50;;;;;;;;4927693;29;11615;-81
2022/11/29 03:51:53;;;;;;;;;29.00;25.50;;;;;;;;4929501;29;11633;-81
2022/11/29 03:54:26;;;;;;;;;24.00;21.75;;;;;;;;4927948;29;11219;-81
2022/11/29 03:56:54;;;;;;;;;25.00;23.00;;;;;;;;4929679;29;11663;-81
2022/11/29 03:59:45;;;;;;;;;27.75;27.25;;;;;;;;4929570;29;11753;-81
2022/11/29 04:02:48;;;;;;;;;22.25;21.50;;;;;;;;4929933;29;11616;-81
2022/11/29 04:05:38;;;;;;;;;24.25;24.25;;;;;;;;4929741;29;11650;-80
2022/11/29 04:08:21;;;;;;;;;22.75;22.75;;;;;;;;4928388;29;11645;-81
2022/11/29 04:11:30;;;;;;;;;24.75;22.25;;;;;;;;4928698;29;11652;-81
2022/11/29 04:14:44;;;;;;;;;24.75;21.25;;;;;;;;4886354;29;11636;-80
2022/11/29 04:17:38;;;;;;;;;24.75;24.75;;;;;;;;4893914;29;11660;-80
2022/11/29 04:20:23;;;;;;;;;25.75;25.75;;;;;;;;4930257;29;11635;-80
2022/11/29 04:23:10;;;;;;;;;24.50;21.25;;;;;;;;4928054;29;11647;-81
2022/11/29 04:26:02;;;;;;;;;23.75;23.50;;;;;;;;4930041;29;11653;-81
2022/11/29 04:28:56;;;;;;;;;30.25;28.25;;;;;;;;4928373;29;11637;-81
2022/11/29 04:31:34;;;;;;;;;23.00;22.00;;;;;;;;4927688;29;11669;-82
2022/11/29 04:34:23;;;;;;;;;30.25;24.25;;;;;;;;4930289;29;12435;-81
2022/11/29 04:37:10;;;;;;;;;27.25;25.00;;;;;;;;4929448;29;11652;-80
2022/11/29 04:40:06;;;;;;;;;28.25;25.75;;;;;;;;4927571;29;11626;-80
2022/11/29 04:43:16;;;;;;;;;31.50;27.00;;;;;;;;4928946;29;11643;-80
2022/11/29 04:46:13;;;;;;;;;25.00;22.75;;;;;;;;4869110;29;11673;-80
2022/11/29 04:49:13;;;;;;;;;28.75;26.50;;;;;;;;4890617;29;11661;-80
2022/11/29 04:51:56;;;;;;;;;25.75;25.50;;;;;;;;4926854;29;11725;-81
2022/11/29 04:54:29;;;;;;;;;26.25;24.50;;;;;;;;4929254;29;11612;-80
2022/11/29 04:57:06;;;;;;;;;18.50;18.50;;;;;;;;4928355;29;11649;-80
2022/11/29 04:59:41;;;;;;;;;32.25;26.00;;;;;;;;4929164;29;11823;-81
2022/11/29 05:02:29;;;;;;;;;28.75;22.00;;;;;;;;4927155;29;11642;-81
2022/11/29 05:05:03;;;;;;;;;21.25;17.75;;;;;;;;4915283;29;11597;-81
2022/11/29 05:07:35;;;;;;;;;15.75;15.75;;;;;;;;4928620;29;11638;-81
2022/11/29 05:10:14;;;;;;;;;22.25;20.50;;;;;;;;4928331;29;11703;-80
2022/11/29 05:12:49;;;;;;;;;22.25;22.00;;;;;;;;4928625;29;11618;-80
2022/11/29 05:15:36;;;;;;;;;22.25;19.50;;;;;;;;4930349;29;12335;-81
2022/11/29 05:18:09;;;;;;;;;20.25;15.75;;;;;;;;4927468;29;11656;-81
2022/11/29 05:20:44;;;;;;;;;16.00;15.00;;;;;;;;4909435;29;11669;-81
2022/11/29 05:23:29;;;;;;;;;16.25;16.25;;;;;;;;4928941;29;11627;-81
2022/11/29 05:26:03;;;;;;;;;21.25;19.00;;;;;;;;4923744;29;11724;-81
2022/11/29 05:28:42;;;;;;;;;15.50;15.50;;;;;;;;4927780;29;11551;-81
2022/11/29 05:31:47;;;;;;;;;18.00;13.00;;;;;;;;4926532;29;11561;-81
2022/11/29 05:34:42;;;;;;;;;15.00;15.00;;;;;;;;4906024;29;11573;-81
2022/11/29 05:37:23;;;;;;;;;12.00;12.00;;;;;;;;4931267;29;11662;-81
2022/11/29 05:40:05;;;;;;;;;13.75;13.75;;;;;;;;4935189;29;11593;-82
2022/11/29 05:42:52;;;;;;;;;17.75;15.00;;;;;;;;4931856;28;11605;-82
2022/11/29 05:45:25;;;;;;;;;21.75;19.50;;;;;;;;4917220;29;12359;-82
2022/11/29 05:47:58;;;;;;;;;21.00;21.00;;;;;;;;4925232;29;12471;-81
2022/11/29 05:50:31;;;;;;;;;28.50;28.25;;;;;;;;4925107;29;11736;-80
2022/11/29 05:53:05;;;;;;;;;22.25;21.50;;;;;;;;4926295;29;11859;-81
2022/11/29 05:55:41;;;;;;;;;28.00;24.75;;;;;;;;4924034;29;11794;-81
2022/11/29 05:58:16;;;;;;;;;13.50;12.50;;;;;;;;4926651;29;11646;-81
2022/11/29 06:00:50;;;;;;;;;11.00;9.75;;;;;;;;4925955;29;11539;-82
2022/11/29 06:03:24;;;;;;;;;11.00;8.25;;;;;;;;4927332;29;11505;-83
2022/11/29 06:05:58;;;;;;;;;8.50;8.50;;;;;;;;4927666;29;11529;-81
2022/11/29 06:08:34;;;;;;;;;9.00;9.00;;;;;;;;4924064;29;11514;-82
2022/11/29 06:11:06;;;;;;;;;19.50;12.00;;;;;;;;4927997;29;11546;-81
2022/11/29 06:13:46;;;;;;;;;8.00;8.00;;;;;;;;4926611;29;11669;-82
2022/11/29 06:16:49;;;;;;;;;8.75;7.25;;;;;;;;4931727;29;11560;-81
2022/11/29 06:19:46;;;;;;;;;9.00;7.50;;;;;;;;4929943;29;11516;-81
2022/11/29 06:22:47;;;;;;;;;14.00;10.00;;;;;;;;4925519;29;11482;-80
2022/11/29 06:25:42;;;;;;;;;16.50;12.50;;;;;;;;4929098;29;11677;-80
2022/11/29 06:28:22;;;;;;;;;10.00;10.00;;;;;;;;4928533;29;11680;-80
2022/11/29 06:30:59;;;;;;;;;11.00;11.00;;;;;;;;4927088;29;11586;-80
2022/11/29 06:33:34;;;;;;;;;11.50;10.00;;;;;;;;4928251;29;11481;-80
2022/11/29 06:36:13;;;;;;;;;13.75;12.25;;;;;;;;4928422;29;11580;-80
2022/11/29 06:38:42;;;;;;;;;23.75;21.50;;;;;;;;4925864;29;11632;-79
2022/11/29 06:41:17;;;;;;;;;23.75;23.75;;;;;;;;4927224;29;11660;-80
2022/11/29 06:43:45;;;;;;;;;27.50;26.50;;;;;;;;4926989;29;11728;-73
2022/11/29 06:46:20;;;;;;;;;28.75;26.50;;;;;;;;4926833;29;12050;-74
2022/11/29 06:48:53;;;;;;;;;21.25;17.00;;;;;;;;4934233;29;11735;-78
2022/11/29 06:51:31;;;;;;;;;38.00;34.00;;;;;;;;4928962;29;11737;-78
2022/11/29 06:54:08;;;;;;;;;31.75;31.75;;;;;;;;4933654;28;11760;-77
2022/11/29 06:56:42;;;;;;;;;26.75;23.50;;;;;;;;4932571;29;11641;-77
2022/11/29 06:59:17;;;;;;;;;25.00;22.75;;;;;;;;4932652;29;11650;-77
2022/11/29 07:01:49;;;;;;;;;22.75;18.25;;;;;;;;4934765;29;11769;-77
2022/11/29 07:04:33;;;;;;;;;15.75;10.50;;;;;;;;4935305;29;11731;-77
2022/11/29 07:07:01;;;;;;;;;14.25;12.00;;;;;;;;4923031;29;11704;-77
2022/11/29 07:09:32;;;;;;;;;10.50;7.50;;;;;;;;4924736;29;11693;-77
2022/11/29 07:12:00;;;;;;;;;14.25;11.00;;;;;;;;4925315;29;11570;-77
2022/11/29 07:14:29;;;;;;;;;11.25;9.25;;;;;;;;4927663;29;11665;-77
2022/11/29 07:17:03;;;;;;;;;23.75;21.00;;;;;;;;4931971;29;11548;-77
2022/11/29 07:19:41;;;;;;;;;19.00;15.75;;;;;;;;4930154;29;12372;-76
2022/11/29 07:22:19;;;;;;;;;14.25;14.25;;;;;;;;4929843;29;12387;-76
2022/11/29 07:25:01;;;;;;;;;17.00;15.50;;;;;;;;4926665;29;11517;-76
2022/11/29 07:27:36;;;;;;;;;11.50;11.50;;;;;;;;4926385;29;11707;-79
2022/11/29 07:30:11;;;;;;;;;12.00;12.00;;;;;;;;4924168;29;11613;-77
2022/11/29 07:32:48;;;;;;;;;12.25;11.75;;;;;;;;4925436;29;11575;-78
2022/11/29 07:35:22;;;;;;;;;20.00;19.25;;;;;;;;4922431;29;11634;-79
2022/11/29 07:38:02;;;;;;;;;15.75;14.25;;;;;;;;4920825;29;11605;-77
2022/11/29 07:40:35;;;;;;;;;15.75;14.25;;;;;;;;4926581;29;11546;-78
2022/11/29 07:43:14;;;;;;;;;12.75;12.75;;;;;;;;4926862;29;11663;-76
2022/11/29 07:45:42;;;;;;;;;13.00;11.75;;;;;;;;4926618;29;12370;-75
2022/11/29 07:48:11;;;;;;;;;18.00;18.00;;;;;;;;4927735;29;11708;-76
2022/11/29 07:50:41;;;;;;;;;13.25;11.50;;;;;;;;4926690;29;11655;-76
2022/11/29 07:53:11;;;;;;;;;13.50;9.50;;;;;;;;4927692;29;11520;-73
2022/11/29 07:55:38;;;;;;;;;12.00;12.00;;;;;;;;4925917;29;11553;-72
2022/11/29 07:58:06;;;;;;;;;8.25;7.75;;;;;;;;4924060;29;11713;-73
2022/11/29 08:00:33;;;;;;;;;18.50;17.00;;;;;;;;4921012;29;11534;-74
2022/11/29 08:03:01;;;;;;;;;8.00;7.75;;;;;;;;4924834;29;11597;-74
2022/11/29 08:05:28;;;;;;;;;23.25;18.25;;;;;;;;4924300;29;11532;-74
2022/11/29 08:08:00;;;;;;;;;9.25;9.25;;;;;;;;4924665;29;11573;-73
2022/11/29 08:10:28;;;;;;;;;11.25;9.00;;;;;;;;4925604;29;11565;-75
2022/11/29 08:12:55;;;;;;;;;10.75;7.75;;;;;;;;4924020;29;11573;-72
2022/11/29 08:15:24;;;;;;;;;10.00;10.00;;;;;;;;4921753;29;11536;-73
2022/11/29 08:17:52;;;;;;;;;7.25;7.25;;;;;;;;4924871;29;11562;-73
2022/11/29 08:20:20;;;;;;;;;10.75;10.25;;;;;;;;4927577;29;11532;-71
2022/11/29 08:22:56;;;;;;;;;8.25;7.00;;;;;;;;4927179;29;11607;-73
2022/11/29 08:25:23;;;;;;;;;6.50;6.50;;;;;;;;4923422;29;11527;-73
2022/11/29 08:27:51;;;;;;;;;9.25;8.00;;;;;;;;4925892;29;11512;-72
2022/11/29 08:30:21;;;;;;;;;6.00;6.00;;;;;;;;4926983;29;12773;-74
2022/11/29 08:32:49;;;;;;;;;18.50;12.75;;;;;;;;4926630;29;11531;-72
2022/11/29 08:35:17;;;;;;;;;14.75;11.75;;;;;;;;4926619;29;11554;-73
2022/11/29 08:37:45;;;;;;;;;17.00;15.25;;;;;;;;4927801;29;11588;-74
2022/11/29 08:40:16;;;;;;;;;8.50;7.00;;;;;;;;4923101;29;11586;-73
2022/11/29 08:42:44;;;;;;;;;13.25;11.50;;;;;;;;4931199;29;11607;-74
2022/11/29 08:45:12;;;;;;;;;7.00;7.00;;;;;;;;4924931;29;11540;-73
2022/11/29 08:47:41;;;;;;;;;8.50;7.50;;;;;;;;4924660;29;11527;-74
2022/11/29 08:50:13;;;;;;;;;7.25;7.25;;;;;;;;4924819;29;11642;-74
2022/11/29 08:55:31;;;;;;;;;11.00;7.25;;;;;;;;4925828;29;11502;-74
2022/11/29 08:58:03;;;;;;;;;10.00;7.75;;;;;;;;4926546;29;12333;-74
2022/11/29 09:00:31;;;;;;;;;7.50;7.50;;;;;;;;4926750;29;11529;-73
2022/11/29 09:03:58;;;;;;;;;16.50;11.50;;;;;;;;4927588;29;11495;-72
2022/11/29 09:05:46;;;;;;;;;9.75;7.50;;;;;;;;4922702;28;11663;-75
2022/11/29 09:08:14;;;;;;;;;9.00;8.25;;;;;;;;4924543;29;11502;-72
2022/11/29 09:10:43;;;;;;;;;10.25;10.00;;;;;;;;4923797;29;12313;-72
2022/11/29 09:13:12;;;;;;;;;10.00;8.25;;;;;;;;4925477;29;12310;-74
2022/11/29 09:15:42;;;;;;;;;15.50;8.00;;;;;;;;4923810;29;11535;-72
2022/11/29 09:18:09;;;;;;;;;13.50;11.75;;;;;;;;4919670;29;12308;-72
2022/11/29 09:20:37;;;;;;;;;8.75;7.00;;;;;;;;4923712;29;12523;-73
2022/11/29 09:23:05;;;;;;;;;11.00;8.00;;;;;;;;4922397;29;11547;-71
2022/11/29 09:25:32;;;;;;;;;11.75;9.00;;;;;;;;4926979;29;11662;-73
2022/11/29 09:28:02;;;;;;;;;11.00;8.25;;;;;;;;4921472;29;11644;-74
2022/11/29 09:30:30;;;;;;;;;13.75;13.75;;;;;;;;4921406;29;11575;-72
2022/11/29 09:32:59;;;;;;;;;10.50;10.50;;;;;;;;4923807;29;11634;-75
2022/11/29 09:35:27;;;;;;;;;13.00;13.00;;;;;;;;4920153;29;11558;-73
2022/11/29 09:37:54;;;;;;;;;14.00;12.00;;;;;;;;4923582;29;11587;-72
2022/11/29 09:40:26;;;;;;;;;11.00;9.00;;;;;;;;4922071;29;13039;-75
2022/11/29 09:42:59;;;;;;;;;11.00;10.75;;;;;;;;4924214;29;11524;-74
2022/11/29 09:45:32;;;;;;;;;6.25;6.25;;;;;;;;4922626;29;11696;-76
2022/11/29 09:48:28;;;;;;;;;16.00;12.00;;;;;;;;4923602;29;11639;-74
2022/11/29 09:51:01;;;;;;;;;11.25;9.75;;;;;;;;4922284;29;11536;-72
2022/11/29 09:53:42;;;;;;;;;11.50;9.50;;;;;;;;4921279;29;11543;-73
2022/11/29 09:56:18;;;;;;;;;13.75;11.50;;;;;;;;4917179;29;11721;-72
2022/11/29 09:58:50;;;;;;;;;16.50;13.00;;;;;;;;4922813;29;12307;-72
2022/11/29 10:01:25;;;;;;;;;12.00;9.50;;;;;;;;4922861;29;11537;-73
2022/11/29 10:03:55;;;;;;;;;16.75;12.50;;;;;;;;4922247;29;11492;-73
2022/11/29 10:06:26;;;;;;;;;12.00;12.00;;;;;;;;4921329;29;11559;-75
2022/11/29 10:08:59;;;;;;;;;10.50;8.50;;;;;;;;4917993;29;11533;-73
2022/11/29 10:11:30;;;;;;;;;11.75;11.75;;;;;;;;4921788;29;11527;-73
2022/11/29 10:14:01;;;;;;;;;10.00;9.00;;;;;;;;4923402;29;11529;-75
2022/11/29 10:16:38;;;;;;;;;9.75;8.25;;;;;;;;4923053;29;11495;-73
2022/11/29 10:19:18;;;;;;;;;12.00;9.50;;;;;;;;4924989;29;11622;-75
2022/11/29 10:21:53;;;;;;;;;11.50;8.25;;;;;;;;4925780;29;11647;-74
2022/11/29 10:24:23;;;;;;;;;13.25;12.25;;;;;;;;4923608;29;11693;-73
2022/11/29 10:26:51;;;;;;;;;9.00;9.00;;;;;;;;4923410;29;11663;-73
2022/11/29 10:29:18;;;;;;;;;11.25;11.25;;;;;;;;4920712;29;11510;-73
2022/11/29 10:31:49;;;;;;;;;13.00;10.75;;;;;;;;4923657;29;11399;-74
2022/11/29 10:34:19;;;;;;;;;13.00;9.75;;;;;;;;4922352;29;11573;-75
2022/11/29 10:36:51;;;;;;;;;9.75;8.75;;;;;;;;4921339;29;11566;-77
2022/11/29 10:39:23;;;;;;;;;8.25;8.25;;;;;;;;4921788;29;12297;-80
2022/11/29 10:41:54;;;;;;;;;11.00;11.00;;;;;;;;4925800;29;11530;-79
2022/11/29 10:44:22;;;;;;;;;10.00;8.75;;;;;;;;4922842;29;11584;-74
2022/11/29 10:46:52;;;;;;;;;12.50;8.50;;;;;;;;4923592;29;11680;-74
2022/11/29 10:49:26;;;;;;;;;7.25;7.25;;;;;;;;4924533;29;11534;-73
2022/11/29 10:51:53;;;;;;;;;9.00;9.00;;;;;;;;4917822;29;11515;-75
2022/11/29 10:54:37;;;;;;;;;9.50;9.50;;;;;;;;4922078;29;11521;-74
2022/11/29 10:57:14;;;;;;;;;13.75;11.00;;;;;;;;4924692;29;11550;-74
2022/11/29 10:59:42;;;;;;;;;14.50;12.75;;;;;;;;4922238;29;11594;-73
2022/11/29 11:02:19;;;;;;;;;9.00;7.25;;;;;;;;4923948;29;11636;-79
2022/11/29 11:04:48;;;;;;;;;7.25;7.25;;;;;;;;4921029;29;12444;-71
2022/11/29 11:07:28;;;;;;;;;8.25;8.25;;;;;;;;4920465;29;11528;-70
2022/11/29 11:09:57;;;;;;;;;7.75;7.75;;;;;;;;4921468;29;11603;-71
2022/11/29 11:12:28;;;;;;;;;9.25;8.00;;;;;;;;4922627;29;11657;-75
2022/11/29 11:15:15;;;;;;;;;17.75;12.75;;;;;;;;4920303;29;11882;-74
2022/11/29 11:17:57;;;;;;;;;10.50;7.25;;;;;;;;4924414;29;11548;-71
2022/11/29 11:20:27;;;;;;;;;10.50;7.75;;;;;;;;4924611;29;11661;-77
2022/11/29 11:22:59;;;;;;;;;11.00;8.50;;;;;;;;4917369;29;11524;-77
2022/11/29 11:25:30;;;;;;;;;8.25;7.50;;;;;;;;4925028;29;11645;-76
2022/11/29 11:27:58;;;;;;;;;9.00;9.00;;;;;;;;4924661;29;11549;-72
2022/11/29 11:30:28;;;;;;;;;13.50;9.75;;;;;;;;4923548;29;11279;-75
2022/11/29 11:33:18;;;;;;;;;13.25;13.00;;;;;;;;4922626;29;11558;-73
2022/11/29 11:36:02;;;;;;;;;9.25;9.25;;;;;;;;4921136;29;11565;-75
2022/11/29 11:38:30;;;;;;;;;14.25;13.25;;;;;;;;4924956;29;11565;-74
2022/11/29 11:41:08;;;;;;;;;7.00;7.00;;;;;;;;4922963;29;11561;-74
2022/11/29 11:43:35;;;;;;;;;8.50;8.50;;;;;;;;4924001;29;11135;-71
2022/11/29 11:46:03;;;;;;;;;10.00;8.50;;;;;;;;4921226;29;11638;-72
2022/11/29 11:48:33;;;;;;;;;11.25;11.25;;;;;;;;4923371;29;11279;-71
2022/11/29 11:51:02;;;;;;;;;14.75;12.25;;;;;;;;4922182;29;11536;-71
2022/11/29 11:53:32;;;;;;;;;17.75;17.50;;;;;;;;4921269;29;11555;-73
2022/11/29 11:56:02;;;;;;;;;32.75;28.50;;;;;;;;4918012;29;11601;-73
2022/11/29 11:58:31;;;;;;;;;42.00;36.75;;;;;;;;4923332;29;11597;-74
2022/11/29 12:01:00;;;;;;;;;19.75;19.25;;;;;;;;4922669;29;11793;-74
2022/11/29 12:03:37;;;;;;;;;20.50;17.75;;;;;;;;4924867;29;11610;-74
2022/11/29 12:06:25;;;;;;;;;10.75;10.50;;;;;;;;4925635;29;11593;-72
2022/11/29 12:08:58;;;;;;;;;18.25;18.25;;;;;;;;4926160;29;11257;-72
2022/11/29 12:11:27;;;;;;;;;9.25;9.25;;;;;;;;4926588;29;11382;-73
2022/11/29 12:13:58;;;;;;;;;20.00;14.00;;;;;;;;4925064;28;11542;-72
2022/11/29 12:16:30;;;;;;;;;43.75;36.75;;;;;;;;4925494;29;11262;-74
2022/11/29 12:19:03;;;;;;;;;12.00;9.50;;;;;;;;4923528;29;12429;-76
2022/11/29 12:21:35;;;;;;;;;11.50;8.50;;;;;;;;4925094;29;11521;-75
2022/11/29 12:24:08;;;;;;;;;73.00;56.25;;;;;;;;4927797;29;11236;-76
2022/11/29 12:26:38;;;;;;;;;17.50;14.50;;;;;;;;4925068;29;11694;-72
2022/11/29 12:29:12;;;;;;;;;13.00;8.50;;;;;;;;4926608;29;12311;-71
2022/11/29 12:31:47;;;;;;;;;9.75;8.00;;;;;;;;4923749;29;11366;-78
2022/11/29 12:34:27;;;;;;;;;11.25;10.00;;;;;;;;4926672;29;11111;-73
2022/11/29 12:37:00;;;;;;;;;13.75;12.00;;;;;;;;4928086;29;11356;-73
2022/11/29 12:39:56;;;;;;;;;20.50;16.00;;;;;;;;4926030;29;11151;-74
2022/11/29 12:42:35;;;;;;;;;19.50;18.00;;;;;;;;4923241;29;11570;-73
2022/11/29 12:45:30;;;;;;;;;23.00;20.25;;;;;;;;4922618;29;13011;-72
2022/11/29 12:48:06;;;;;;;;;16.00;16.00;;;;;;;;4925640;29;11575;-74
2022/11/29 12:50:43;;;;;;;;;51.25;41.75;;;;;;;;4926945;29;11554;-73
2022/11/29 12:53:23;;;;;;;;;22.75;17.25;;;;;;;;4928342;29;11642;-74
2022/11/29 12:55:57;;;;;;;;;25.50;23.25;;;;;;;;4928096;29;11572;-74
2022/11/29 12:58:29;;;;;;;;;32.50;32.25;;;;;;;;4928590;29;11560;-74
2022/11/29 13:01:04;;;;;;;;;26.50;25.00;;;;;;;;4925870;29;11603;-73
2022/11/29 13:03:37;;;;;;;;;39.00;34.50;;;;;;;;4924706;29;11661;-72
2022/11/29 13:06:16;;;;;;;;;28.25;25.00;;;;;;;;4924487;29;11776;-74
2022/11/29 13:09:04;;;;;;;;;35.75;31.00;;;;;;;;4927078;29;11761;-72
2022/11/29 13:11:34;;;;;;;;;27.00;27.00;;;;;;;;4925463;29;11668;-72
2022/11/29 13:14:08;;;;;;;;;35.75;30.25;;;;;;;;4928036;29;11697;-73
2022/11/29 13:16:44;;;;;;;;;35.00;29.00;;;;;;;;4927869;29;11709;-72
2022/11/29 13:19:18;;;;;;;;;26.00;24.25;;;;;;;;4926362;29;11667;-72
2022/11/29 13:21:54;;;;;;;;;19.50;19.00;;;;;;;;4926726;29;11742;-72
2022/11/29 13:24:26;;;;;;;;;29.00;25.00;;;;;;;;4928771;29;11686;-72
2022/11/29 13:26:55;;;;;;;;;24.00;23.25;;;;;;;;4925352;29;11736;-73
2022/11/29 13:29:23;;;;;;;;;23.25;22.75;;;;;;;;4927868;29;11573;-73
2022/11/29 13:31:51;;;;;;;;;30.25;23.50;;;;;;;;4923753;29;11580;-73
2022/11/29 13:34:22;;;;;;;;;21.50;21.50;;;;;;;;4927374;29;11568;-73
2022/11/29 13:37:00;;;;;;;;;30.75;25.25;;;;;;;;4928337;29;11713;-73
2022/11/29 13:39:42;;;;;;;;;25.00;23.25;;;;;;;;4926047;29;11708;-73
2022/11/29 13:42:17;;;;;;;;;22.50;20.75;;;;;;;;4924933;29;11852;-71
2022/11/29 13:44:50;;;;;;;;;21.25;20.75;;;;;;;;4928275;29;11577;-72
2022/11/29 13:47:19;;;;;;;;;28.75;21.75;;;;;;;;4927362;29;11681;-74
2022/11/29 13:49:53;;;;;;;;;23.50;22.50;;;;;;;;4923387;29;11590;-73
2022/11/29 13:52:40;;;;;;;;;28.25;25.25;;;;;;;;4926351;29;11649;-73
2022/11/29 13:55:27;;;;;;;;;28.75;24.25;;;;;;;;4926755;29;11616;-73
2022/11/29 13:57:57;;;;;;;;;42.75;35.50;;;;;;;;4925443;29;11758;-71
2022/11/29 14:00:33;;;;;;;;;24.00;20.25;;;;;;;;4926453;29;11718;-71
2022/11/29 14:03:27;;;;;;;;;28.00;28.00;;;;;;;;4926539;29;11625;-70
2022/11/29 14:06:03;;;;;;;;;31.75;30.25;;;;;;;;4925107;29;11623;-70
2022/11/29 14:08:34;;;;;;;;;28.75;20.50;;;;;;;;4924935;29;11574;-71
2022/11/29 14:11:04;;;;;;;;;29.75;25.00;;;;;;;;4926755;29;11565;-71
2022/11/29 14:13:35;;;;;;;;;30.50;26.50;;;;;;;;4926999;29;11618;-71
2022/11/29 14:16:05;;;;;;;;;35.00;24.75;;;;;;;;4927154;29;11645;-71
2022/11/29 14:18:50;;;;;;;;;39.25;33.00;;;;;;;;4924745;29;11602;-73
2022/11/29 14:21:18;;;;;;;;;25.75;24.25;;;;;;;;4926407;29;12404;-72
2022/11/29 14:23:48;;;;;;;;;36.50;30.00;;;;;;;;4925354;29;11558;-73
2022/11/29 14:26:29;;;;;;;;;41.75;35.75;;;;;;;;4926348;29;11603;-74
2022/11/29 14:28:58;;;;;;;;;37.25;30.75;;;;;;;;4921798;29;11720;-73
2022/11/29 14:31:48;;;;;;;;;28.50;26.00;;;;;;;;4922295;29;12527;-72
2022/11/29 14:34:28;;;;;;;;;28.25;25.25;;;;;;;;4923137;29;11581;-74
2022/11/29 14:37:03;;;;;;;;;25.50;23.00;;;;;;;;4925062;29;11721;-74
2022/11/29 14:39:43;;;;;;;;;30.25;23.75;;;;;;;;4924047;29;11631;-76
2022/11/29 14:42:17;;;;;;;;;31.75;22.75;;;;;;;;4923345;29;11711;-74
2022/11/29 14:44:47;;;;;;;;;25.25;25.25;;;;;;;;4924000;29;11568;-74
2022/11/29 14:47:25;;;;;;;;;25.50;21.75;;;;;;;;4923181;29;11595;-73
2022/11/29 14:49:55;;;;;;;;;19.25;19.25;;;;;;;;4926227;29;11587;-76
2022/11/29 14:52:29;;;;;;;;;29.00;28.50;;;;;;;;4925782;29;11562;-72
2022/11/29 14:55:08;;;;;;;;;19.25;19.25;;;;;;;;4922685;29;11776;-74
2022/11/29 14:57:55;;;;;;;;;17.25;17.00;;;;;;;;4925769;28;11590;-76
2022/11/29 15:00:25;;;;;;;;;23.25;21.75;;;;;;;;4926128;29;11576;-74
2022/11/29 15:02:56;;;;;;;;;26.75;23.75;;;;;;;;4924399;29;11621;-76
2022/11/29 15:05:31;;;;;;;;;29.25;21.75;;;;;;;;4922702;29;11718;-73
2022/11/29 15:08:08;;;;;;;;;30.50;28.00;;;;;;;;4925904;29;11733;-74